Weather at Buchanan Airport

Public forecast

Using degrees Celsius for public forecast. Weather courtesy of forecast.io.

Closest aviation weather report (METAR) to Buchanan Airport

Closest report is Roberts International Airport, 26.8 nm (49.6 km) NW. Retrieved 2021/03/04 13:30 UTC (17 minutes ago):

GLRB 041330Z 26005KT 9999 BKN020 32/25 Q1009 NOSIG

Closest aviation forecast (TAF) to Buchanan Airport

Forecast is more than 6 hours old.

Closest forecast is Roberts International Airport, 26.8 nm (49.6 km) NW. Retrieved 2021/03/04 06:18 UTC (7 hours ago):

TAF COR TAF COR GLRB 040500Z 0406/0506 22010KT 999 BKN018 BECMG 0407/0409 06004KT 4000 BR SCT011 TEMPO 0410/0414 24008KT 9999 TS BKN016 FEW026CB BECMG 0416/0418 25011KT SCT015